createdAt,value
2022-10-01T00:01:14.522Z,13.28
2022-10-01T00:03:42.351Z,13.27
2022-10-01T00:06:13.293Z,13.22
2022-10-01T00:08:42.084Z,13.23
2022-10-01T00:11:12.108Z,13.22
2022-10-01T00:13:40.433Z,13.19
2022-10-01T00:16:11.750Z,13.13
2022-10-01T00:18:40.335Z,13.14
2022-10-01T00:21:08.500Z,13.20
2022-10-01T00:23:36.401Z,13.15
2022-10-01T00:26:12.814Z,13.09
2022-10-01T00:28:40.257Z,13.02
2022-10-01T00:31:10.572Z,12.93
2022-10-01T00:33:38.637Z,12.87
2022-10-01T00:36:07.580Z,12.85
2022-10-01T00:38:35.122Z,12.85
2022-10-01T00:41:02.800Z,12.84
2022-10-01T00:43:32.631Z,12.85
2022-10-01T00:46:07.211Z,12.86
2022-10-01T00:48:44.045Z,12.86
2022-10-01T00:51:14.071Z,12.86
2022-10-01T00:53:42.044Z,12.85
2022-10-01T00:56:09.281Z,12.85
2022-10-01T00:58:36.658Z,12.85
2022-10-01T01:01:04.324Z,12.86
2022-10-01T01:03:31.785Z,12.89
2022-10-01T01:06:00.358Z,12.91
2022-10-01T01:08:28.191Z,12.91
2022-10-01T01:11:04.282Z,12.88
2022-10-01T01:13:37.752Z,12.90
2022-10-01T01:16:12.815Z,12.92
2022-10-01T01:18:50.667Z,12.88
2022-10-01T01:21:29.005Z,12.92
2022-10-01T01:24:34.681Z,12.89
2022-10-01T01:27:26.343Z,12.85
2022-10-01T01:30:04.486Z,12.83
2022-10-01T01:32:39.756Z,12.81
2022-10-01T01:35:11.408Z,12.81
2022-10-01T01:37:50.373Z,12.82
2022-10-01T01:40:19.630Z,12.83
2022-10-01T01:42:49.393Z,12.86
2022-10-01T01:45:22.855Z,12.89
2022-10-01T01:47:55.523Z,12.93
2022-10-01T01:50:29.078Z,12.96
2022-10-01T01:52:56.400Z,13.00
2022-10-01T01:55:25.413Z,13.03
2022-10-01T01:57:53.988Z,13.03
2022-10-01T02:00:23.017Z,13.02
2022-10-01T02:02:52.660Z,13.03
2022-10-01T02:05:23.936Z,12.99
2022-10-01T02:08:12.900Z,12.99
2022-10-01T02:10:59.730Z,12.96
2022-10-01T02:13:39.129Z,12.96
2022-10-01T02:16:33.700Z,12.92
2022-10-01T02:19:04.604Z,12.90
2022-10-01T02:21:38.718Z,12.87
2022-10-01T02:24:14.494Z,12.85
2022-10-01T02:26:43.681Z,12.84
2022-10-01T02:29:14.594Z,12.82
2022-10-01T02:31:44.389Z,12.85
2022-10-01T02:34:19.397Z,12.84
2022-10-01T02:36:49.835Z,12.83
2022-10-01T02:39:20.095Z,12.84
2022-10-01T02:41:50.497Z,12.85
2022-10-01T02:44:23.512Z,12.79
2022-10-01T02:46:56.450Z,12.80
2022-10-01T02:49:27.429Z,12.84
2022-10-01T02:52:07.795Z,12.80
2022-10-01T02:54:40.475Z,12.87
2022-10-01T02:57:23.124Z,12.88
2022-10-01T02:59:50.646Z,12.88
2022-10-01T03:02:20.149Z,12.91
2022-10-01T03:04:48.700Z,12.90
2022-10-01T03:07:16.910Z,12.89
2022-10-01T03:09:44.393Z,12.89
2022-10-01T03:12:12.129Z,12.92
2022-10-01T03:14:39.491Z,12.93
2022-10-01T03:17:07.359Z,12.89
2022-10-01T03:19:36.081Z,12.92
2022-10-01T03:22:03.632Z,12.92
2022-10-01T03:24:31.110Z,12.91
2022-10-01T03:26:58.548Z,12.92
2022-10-01T03:29:26.451Z,12.91
2022-10-01T03:31:54.396Z,12.92
2022-10-01T03:34:21.845Z,12.92
2022-10-01T03:36:52.502Z,12.91
2022-10-01T03:39:19.896Z,12.88
2022-10-01T03:41:47.266Z,12.89
2022-10-01T03:44:14.495Z,12.89
2022-10-01T03:46:41.759Z,12.88
2022-10-01T03:49:08.965Z,12.86
2022-10-01T03:51:37.659Z,12.86
2022-10-01T03:54:08.337Z,12.86
2022-10-01T03:56:35.884Z,12.85
2022-10-01T03:59:03.560Z,12.85
2022-10-01T04:01:31.172Z,12.83
2022-10-01T04:03:59.174Z,12.80
2022-10-01T04:06:26.525Z,12.78
2022-10-01T04:08:53.865Z,12.74
2022-10-01T04:11:22.644Z,12.72
2022-10-01T04:13:49.815Z,12.69
2022-10-01T04:16:17.245Z,12.66
2022-10-01T04:18:44.545Z,12.65
2022-10-01T04:21:12.950Z,12.65
2022-10-01T04:23:40.648Z,12.59
2022-10-01T04:26:08.373Z,12.60
2022-10-01T04:28:37.174Z,12.58
2022-10-01T04:31:23.508Z,12.60
2022-10-01T04:33:51.065Z,12.62
2022-10-01T04:36:18.353Z,12.64
2022-10-01T04:38:45.656Z,12.62
2022-10-01T04:41:14.568Z,12.65
2022-10-01T04:43:43.340Z,12.65
2022-10-01T04:46:10.709Z,12.60
2022-10-01T04:48:37.958Z,12.63
2022-10-01T04:51:05.303Z,12.63
2022-10-01T04:53:32.602Z,12.62
2022-10-01T04:55:59.827Z,12.63
2022-10-01T04:58:27.076Z,12.64
2022-10-01T05:01:01.007Z,12.64
2022-10-01T05:03:29.230Z,12.58
2022-10-01T05:05:56.559Z,12.59
2022-10-01T05:08:23.838Z,12.59
2022-10-01T05:10:51.091Z,12.62
2022-10-01T05:13:18.303Z,12.65
2022-10-01T05:15:45.504Z,12.64
2022-10-01T05:18:14.146Z,12.63
2022-10-01T05:20:41.312Z,12.61
2022-10-01T05:23:08.678Z,12.61
2022-10-01T05:25:35.842Z,12.63
2022-10-01T05:28:06.599Z,12.63
2022-10-01T05:30:34.503Z,12.66
2022-10-01T05:33:03.510Z,12.67
2022-10-01T05:35:32.495Z,12.68
2022-10-01T05:38:02.878Z,12.72
2022-10-01T05:40:31.036Z,12.73
2022-10-01T05:42:59.750Z,12.74
2022-10-01T05:45:27.794Z,12.76
2022-10-01T05:47:59.827Z,12.68
2022-10-01T05:50:27.735Z,12.79
2022-10-01T05:52:56.279Z,12.76
2022-10-01T05:55:24.406Z,12.76
2022-10-01T05:57:55.743Z,12.78
2022-10-01T06:00:23.505Z,12.76
2022-10-01T06:02:52.281Z,12.81
2022-10-01T06:05:20.035Z,12.81
2022-10-01T06:07:47.565Z,12.83
2022-10-01T06:10:17.044Z,12.86
2022-10-01T06:12:44.917Z,12.90
2022-10-01T06:15:13.393Z,12.94
2022-10-01T06:17:45.038Z,12.94
2022-10-01T06:20:13.828Z,12.93
2022-10-01T06:22:43.070Z,12.91
2022-10-01T06:25:11.181Z,12.96
2022-10-01T06:27:39.856Z,12.99
2022-10-01T06:30:08.224Z,12.93
2022-10-01T06:32:35.686Z,12.95
2022-10-01T06:35:03.045Z,12.98
2022-10-01T06:37:30.573Z,13.01
2022-10-01T06:39:57.832Z,12.99
2022-10-01T06:42:25.209Z,12.99
2022-10-01T06:44:53.798Z,13.01
2022-10-01T06:47:21.113Z,12.99
2022-10-01T06:49:48.459Z,12.96
2022-10-01T06:52:34.420Z,12.95
2022-10-01T06:55:01.749Z,12.96
2022-10-01T06:57:30.060Z,13.00
2022-10-01T06:59:59.607Z,13.03
2022-10-01T07:02:29.137Z,13.03
2022-10-01T07:04:59.092Z,13.07
2022-10-01T07:07:30.155Z,13.02
2022-10-01T07:09:57.924Z,13.05
2022-10-01T07:12:25.378Z,13.08
2022-10-01T07:14:52.565Z,13.08
2022-10-01T07:17:21.596Z,13.08
2022-10-01T07:19:48.841Z,13.10
2022-10-01T07:22:16.126Z,13.14
2022-10-01T07:24:43.656Z,13.15
2022-10-01T07:27:10.914Z,13.14
2022-10-01T07:29:38.211Z,13.18
2022-10-01T07:32:09.033Z,13.20
2022-10-01T07:34:42.681Z,13.25
2022-10-01T07:37:10.478Z,13.29
2022-10-01T07:39:38.031Z,13.31
2022-10-01T07:42:06.022Z,13.31
2022-10-01T07:44:34.043Z,13.33
2022-10-01T07:47:01.344Z,13.34
2022-10-01T07:49:28.793Z,13.37
2022-10-01T07:51:59.069Z,13.41
2022-10-01T07:54:26.584Z,13.44
2022-10-01T07:56:56.001Z,13.44
2022-10-01T07:59:23.480Z,13.43
2022-10-01T08:01:51.934Z,13.47
2022-10-01T08:04:38.032Z,13.48
2022-10-01T08:07:08.412Z,13.54
2022-10-01T08:09:38.039Z,13.56
2022-10-01T08:12:05.225Z,13.60
2022-10-01T08:14:32.623Z,13.63
2022-10-01T08:16:59.893Z,13.67
2022-10-01T08:19:27.231Z,13.74
2022-10-01T08:21:54.545Z,13.76
2022-10-01T08:24:23.210Z,13.74
2022-10-01T08:26:56.076Z,13.72
2022-10-01T08:29:23.516Z,13.76
2022-10-01T08:31:50.920Z,13.79
2022-10-01T08:34:18.534Z,13.81
2022-10-01T08:36:45.912Z,13.82
2022-10-01T08:39:14.946Z,13.84
2022-10-01T08:41:55.039Z,13.83
2022-10-01T08:44:28.635Z,13.84
2022-10-01T08:47:12.005Z,13.86
2022-10-01T08:49:44.890Z,13.86
2022-10-01T08:52:19.003Z,13.88
2022-10-01T08:54:51.889Z,13.88
2022-10-01T08:57:25.774Z,13.91
2022-10-01T08:59:56.246Z,13.91
2022-10-01T09:02:25.924Z,13.91
2022-10-01T09:05:01.029Z,13.91
2022-10-01T09:07:53.533Z,13.91
2022-10-01T09:10:28.140Z,13.84
2022-10-01T09:13:14.348Z,13.79
2022-10-01T09:15:50.366Z,13.83
2022-10-01T09:18:27.132Z,13.86
2022-10-01T09:20:57.893Z,13.88
2022-10-01T09:23:29.361Z,13.90
2022-10-01T09:25:59.762Z,13.89
2022-10-01T09:28:31.835Z,13.90
2022-10-01T09:31:00.780Z,13.94
2022-10-01T09:33:31.765Z,13.95
2022-10-01T09:36:06.149Z,13.92
2022-10-01T09:38:38.730Z,13.99
2022-10-01T09:41:08.386Z,13.98
2022-10-01T09:43:38.614Z,14.03
2022-10-01T09:46:13.455Z,14.02
2022-10-01T09:48:49.496Z,14.05
2022-10-01T09:51:19.451Z,14.03
2022-10-01T09:54:01.309Z,14.08
2022-10-01T09:56:34.201Z,14.10
2022-10-01T09:59:08.091Z,14.13
2022-10-01T10:01:43.606Z,14.12
2022-10-01T10:04:11.410Z,14.14
2022-10-01T10:06:39.377Z,14.19
2022-10-01T10:09:16.703Z,14.22
2022-10-01T10:11:45.623Z,14.27
2022-10-01T10:14:18.405Z,14.31
2022-10-01T10:16:47.898Z,14.29
2022-10-01T10:19:22.554Z,14.32
2022-10-01T10:21:52.258Z,14.27
2022-10-01T10:24:26.629Z,14.31
2022-10-01T10:26:56.661Z,14.31
2022-10-01T10:29:31.163Z,14.31
2022-10-01T10:32:00.092Z,14.37
2022-10-01T10:34:33.003Z,14.37
2022-10-01T10:37:05.307Z,14.38
2022-10-01T10:39:35.674Z,14.39
2022-10-01T10:42:05.016Z,14.42
2022-10-01T10:44:38.940Z,14.46
2022-10-01T10:47:11.451Z,14.47
2022-10-01T10:49:45.808Z,14.50
2022-10-01T10:52:21.317Z,14.53
2022-10-01T10:54:51.666Z,14.50
2022-10-01T10:57:21.466Z,14.60
2022-10-01T10:59:58.953Z,14.66
2022-10-01T11:02:30.098Z,14.67
2022-10-01T11:04:59.670Z,14.61
2022-10-01T11:07:27.916Z,14.75
2022-10-01T11:10:15.592Z,14.81
2022-10-01T11:12:58.842Z,14.78
2022-10-01T11:15:46.377Z,14.97
2022-10-01T11:18:29.767Z,15.13
2022-10-01T11:21:23.062Z,15.29
2022-10-01T11:24:15.214Z,15.46
2022-10-01T11:26:53.569Z,15.53
2022-10-01T11:29:36.143Z,15.59
2022-10-01T11:32:17.516Z,15.62
2022-10-01T11:35:03.865Z,15.66
2022-10-01T11:37:52.211Z,15.73
2022-10-01T11:40:25.042Z,15.73
2022-10-01T11:42:58.522Z,15.69
2022-10-01T11:45:28.874Z,15.71
2022-10-01T11:48:00.901Z,15.75
2022-10-01T11:50:29.262Z,15.80
2022-10-01T11:53:01.568Z,15.81
2022-10-01T11:55:53.589Z,15.84
2022-10-01T11:58:49.315Z,15.76
2022-10-01T12:01:25.800Z,15.70
2022-10-01T12:04:05.673Z,15.66
2022-10-01T12:06:38.367Z,15.65
2022-10-01T12:09:14.297Z,15.63
2022-10-01T12:11:52.866Z,15.61
2022-10-01T12:14:25.117Z,15.54
2022-10-01T12:16:56.864Z,15.54
2022-10-01T12:19:28.810Z,15.54
2022-10-01T12:22:00.009Z,15.54
2022-10-01T12:24:30.313Z,15.58
2022-10-01T12:27:07.649Z,15.69
2022-10-01T12:29:45.113Z,15.75
2022-10-01T12:32:22.274Z,15.86
2022-10-01T12:34:59.989Z,15.97
2022-10-01T12:37:44.442Z,15.98
2022-10-01T12:40:26.608Z,16.15
2022-10-01T12:43:09.029Z,16.28
2022-10-01T12:45:50.334Z,16.40
2022-10-01T12:48:24.071Z,16.41
2022-10-01T12:51:04.785Z,16.48
2022-10-01T12:53:38.921Z,16.50
2022-10-01T12:56:17.115Z,16.48
2022-10-01T12:59:06.539Z,16.41
2022-10-01T13:01:52.802Z,16.45
2022-10-01T13:04:58.923Z,16.51
2022-10-01T13:07:46.963Z,16.61
2022-10-01T13:10:24.706Z,16.91
2022-10-01T13:13:02.076Z,17.15
2022-10-01T13:15:32.903Z,17.18
2022-10-01T13:18:09.427Z,17.25
2022-10-01T13:20:41.264Z,17.16
2022-10-01T13:23:15.547Z,17.10
2022-10-01T13:25:50.975Z,16.93
2022-10-01T13:28:26.798Z,16.77
2022-10-01T13:31:00.276Z,16.58
2022-10-01T13:33:29.867Z,16.60
2022-10-01T13:35:59.482Z,16.54
2022-10-01T13:38:30.797Z,16.47
2022-10-01T13:41:01.887Z,16.38
2022-10-01T13:43:30.951Z,16.33
2022-10-01T13:46:07.224Z,16.30
2022-10-01T13:48:37.214Z,16.25
2022-10-01T13:51:09.279Z,16.22
2022-10-01T13:53:47.542Z,16.16
2022-10-01T13:56:28.896Z,16.18
2022-10-01T13:58:56.189Z,16.16
2022-10-01T14:01:30.257Z,16.16
2022-10-01T14:04:05.652Z,16.10
2022-10-01T14:06:42.806Z,16.11
2022-10-01T14:09:15.432Z,16.09
2022-10-01T14:12:03.652Z,16.09
2022-10-01T14:14:54.554Z,16.00
2022-10-01T14:17:24.937Z,16.13
2022-10-01T14:19:52.836Z,16.16
2022-10-01T14:22:34.742Z,16.17
2022-10-01T14:25:15.757Z,16.20
2022-10-01T14:27:48.432Z,16.20
2022-10-01T14:30:19.929Z,16.17
2022-10-01T14:33:16.876Z,16.21
2022-10-01T14:35:53.958Z,16.15
2022-10-01T14:38:22.784Z,16.10
2022-10-01T14:40:53.475Z,16.07
2022-10-01T14:43:22.913Z,16.01
2022-10-01T14:45:54.866Z,15.99
2022-10-01T14:48:23.092Z,16.02
2022-10-01T14:50:53.737Z,15.97
2022-10-01T14:53:23.725Z,15.96
2022-10-01T14:55:55.574Z,15.94
2022-10-01T14:58:27.595Z,15.91
2022-10-01T15:00:56.855Z,15.89
2022-10-01T15:03:24.884Z,15.87
2022-10-01T15:06:03.539Z,15.83
2022-10-01T15:08:38.965Z,15.77
2022-10-01T15:11:12.369Z,15.83
2022-10-01T15:13:42.358Z,15.79
2022-10-01T15:16:12.789Z,15.81
2022-10-01T15:18:46.647Z,15.78
2022-10-01T15:21:19.166Z,15.74
2022-10-01T15:23:47.879Z,15.72
2022-10-01T15:26:21.037Z,15.65
2022-10-01T15:28:48.302Z,15.62
2022-10-01T15:31:16.941Z,15.54
2022-10-01T15:33:44.682Z,15.49
2022-10-01T15:36:15.570Z,15.46
2022-10-01T15:38:44.550Z,15.42
2022-10-01T15:41:31.657Z,15.40
2022-10-01T15:44:04.220Z,15.30
2022-10-01T15:46:34.824Z,15.39
2022-10-01T15:49:17.600Z,15.34
2022-10-01T15:52:11.190Z,15.25
2022-10-01T15:54:40.536Z,15.17
2022-10-01T15:57:10.326Z,15.09
2022-10-01T15:59:40.665Z,14.98
2022-10-01T16:02:10.439Z,14.87
2022-10-01T16:04:37.803Z,14.80
2022-10-01T16:07:05.244Z,14.74
2022-10-01T16:09:32.452Z,14.72
2022-10-01T16:12:04.064Z,14.66
2022-10-01T16:14:37.370Z,14.64
2022-10-01T16:17:30.434Z,14.64
2022-10-01T16:19:59.846Z,14.64
2022-10-01T16:22:30.109Z,14.65
2022-10-01T16:24:58.892Z,14.65
2022-10-01T16:27:28.310Z,14.64
2022-10-01T16:30:04.976Z,14.65
2022-10-01T16:32:32.963Z,14.60
2022-10-01T16:35:15.756Z,14.60
2022-10-01T16:37:43.580Z,14.59
2022-10-01T16:40:15.828Z,14.62
2022-10-01T16:42:44.290Z,14.66
2022-10-01T16:45:16.094Z,14.71
2022-10-01T16:47:43.510Z,14.73
2022-10-01T16:50:12.097Z,14.72
2022-10-01T16:52:40.291Z,14.67
2022-10-01T16:55:17.360Z,14.73
2022-10-01T16:57:44.713Z,14.70
2022-10-01T17:00:15.686Z,14.63
2022-10-01T17:02:42.912Z,14.51
2022-10-01T17:05:17.597Z,14.34
2022-10-01T17:07:45.389Z,14.24
2022-10-01T17:10:13.685Z,14.17
2022-10-01T17:12:41.261Z,14.15
2022-10-01T17:15:13.930Z,14.13
2022-10-01T17:17:42.616Z,14.11
2022-10-01T17:20:10.254Z,14.09
2022-10-01T17:22:39.149Z,14.06
2022-10-01T17:25:07.317Z,14.05
2022-10-01T17:27:34.727Z,14.03
2022-10-01T17:30:03.331Z,14.01
2022-10-01T17:32:32.972Z,14.00
2022-10-01T17:35:01.545Z,13.98
2022-10-01T17:37:29.704Z,13.96
2022-10-01T17:39:57.052Z,13.94
2022-10-01T17:42:24.220Z,13.94
2022-10-01T17:44:52.485Z,13.92
2022-10-01T17:47:19.617Z,13.92
2022-10-01T17:49:46.827Z,13.90
2022-10-01T17:52:15.633Z,13.92
2022-10-01T17:54:42.995Z,13.92
2022-10-01T17:57:10.987Z,13.94
2022-10-01T17:59:38.725Z,13.97
2022-10-01T18:02:23.674Z,13.97
2022-10-01T18:04:54.578Z,13.97
2022-10-01T18:07:24.508Z,13.99
2022-10-01T18:09:53.484Z,14.01
2022-10-01T18:12:20.744Z,14.02
2022-10-01T18:14:49.904Z,14.04
2022-10-01T18:17:17.472Z,14.07
2022-10-01T18:19:53.472Z,14.09
2022-10-01T18:22:21.332Z,14.11
2022-10-01T18:24:50.090Z,14.09
2022-10-01T18:27:17.485Z,14.01
2022-10-01T18:29:44.973Z,14.00
2022-10-01T18:32:16.532Z,13.96
2022-10-01T18:34:49.948Z,13.93
2022-10-01T18:37:26.700Z,13.92
2022-10-01T18:40:00.264Z,13.93
2022-10-01T18:42:38.145Z,13.94
2022-10-01T18:45:13.469Z,13.95
2022-10-01T18:47:50.769Z,13.95
2022-10-01T18:50:28.167Z,13.97
2022-10-01T18:53:11.039Z,13.95
2022-10-01T18:56:03.326Z,13.98
2022-10-01T18:58:53.178Z,13.94
2022-10-01T19:01:28.214Z,13.98
2022-10-01T19:04:27.590Z,14.05
2022-10-01T19:07:09.754Z,14.05
2022-10-01T19:09:47.893Z,14.08
2022-10-01T19:12:30.633Z,14.11
2022-10-01T19:15:16.884Z,14.12
2022-10-01T19:18:09.479Z,14.14
2022-10-01T19:20:52.824Z,14.24
2022-10-01T19:23:40.370Z,14.18
2022-10-01T19:26:13.476Z,14.19
2022-10-01T19:28:58.472Z,14.09
2022-10-01T19:31:34.192Z,14.02
2022-10-01T19:34:09.904Z,13.96
2022-10-01T19:36:41.661Z,13.92
2022-10-01T19:39:14.985Z,13.88
2022-10-01T19:41:47.518Z,13.81
2022-10-01T19:44:20.905Z,13.84
2022-10-01T19:46:50.279Z,13.79
2022-10-01T19:49:22.858Z,13.81
2022-10-01T19:51:57.479Z,13.81
2022-10-01T19:54:30.743Z,13.72
2022-10-01T19:57:06.817Z,13.75
2022-10-01T19:59:35.615Z,13.71
2022-10-01T20:02:13.629Z,13.75
2022-10-01T20:04:51.851Z,13.74
2022-10-01T20:07:24.312Z,13.70
2022-10-01T20:09:59.479Z,13.71
2022-10-01T20:12:36.273Z,13.74
2022-10-01T20:15:20.203Z,13.73
2022-10-01T20:17:59.890Z,13.75
2022-10-01T20:20:36.135Z,13.68
2022-10-01T20:23:20.072Z,13.73
2022-10-01T20:25:54.505Z,13.76
2022-10-01T20:28:27.802Z,13.76
2022-10-01T20:31:05.765Z,13.77
2022-10-01T20:33:43.238Z,13.75
2022-10-01T20:36:17.304Z,13.72
2022-10-01T20:38:49.833Z,13.65
2022-10-01T20:41:20.086Z,13.66
2022-10-01T20:43:51.385Z,13.64
2022-10-01T20:46:25.286Z,13.65
2022-10-01T20:48:58.451Z,13.50
2022-10-01T20:51:35.361Z,13.45
2022-10-01T20:54:07.553Z,13.54
2022-10-01T20:56:38.937Z,13.49
2022-10-01T20:59:11.806Z,13.56
2022-10-01T21:01:47.037Z,13.51
2022-10-01T21:04:18.573Z,13.55
2022-10-01T21:06:49.155Z,13.56
2022-10-01T21:09:22.819Z,13.61
2022-10-01T21:11:56.543Z,13.55
2022-10-01T21:14:28.328Z,13.55
2022-10-01T21:17:15.832Z,13.56
2022-10-01T21:20:02.751Z,13.43
2022-10-01T21:22:47.897Z,13.55
2022-10-01T21:25:20.869Z,13.59
2022-10-01T21:28:18.788Z,13.51
2022-10-01T21:31:02.512Z,13.52
2022-10-01T21:33:34.941Z,13.53
2022-10-01T21:36:07.537Z,13.49
2022-10-01T21:38:43.343Z,13.48
2022-10-01T21:41:24.288Z,13.47
2022-10-01T21:44:30.035Z,13.51
2022-10-01T21:47:03.398Z,13.51
2022-10-01T21:49:47.167Z,13.46
2022-10-01T21:52:25.793Z,13.46
2022-10-01T21:55:17.955Z,13.45
2022-10-01T21:58:08.463Z,13.44
2022-10-01T22:00:36.083Z,13.39
2022-10-01T22:03:11.849Z,13.41
2022-10-01T22:05:50.383Z,13.40
2022-10-01T22:08:48.501Z,13.35
2022-10-01T22:11:19.542Z,13.32
2022-10-01T22:13:51.599Z,13.34
2022-10-01T22:16:20.194Z,13.29
2022-10-01T22:18:51.736Z,13.33
2022-10-01T22:21:25.005Z,13.34
2022-10-01T22:23:59.180Z,13.27
2022-10-01T22:26:30.783Z,13.30
2022-10-01T22:29:02.120Z,13.31
2022-10-01T22:31:33.801Z,13.27
2022-10-01T22:34:05.675Z,13.17
2022-10-01T22:36:40.784Z,13.21
2022-10-01T22:39:13.547Z,13.15
2022-10-01T22:41:46.158Z,13.16
2022-10-01T22:44:15.365Z,13.06
2022-10-01T22:47:01.084Z,13.13
2022-10-01T22:49:44.356Z,13.05
2022-10-01T22:52:23.999Z,12.94
2022-10-01T22:55:03.287Z,12.88
2022-10-01T22:57:53.736Z,12.89
2022-10-01T23:00:21.517Z,12.83
2022-10-01T23:02:59.787Z,12.88
2022-10-01T23:05:46.281Z,12.87
2022-10-01T23:08:24.313Z,12.80
2022-10-01T23:11:02.487Z,12.76
2022-10-01T23:13:37.860Z,12.70
2022-10-01T23:16:14.737Z,12.69
2022-10-01T23:18:51.870Z,12.61
2022-10-01T23:21:33.884Z,12.64
2022-10-01T23:24:14.220Z,12.61
2022-10-01T23:26:53.259Z,12.57
2022-10-01T23:29:49.199Z,12.50
2022-10-01T23:32:28.997Z,12.36
2022-10-01T23:35:04.995Z,12.38
2022-10-01T23:37:50.423Z,12.23
2022-10-01T23:40:21.018Z,12.24
2022-10-01T23:42:59.092Z,12.17
2022-10-01T23:45:30.686Z,12.13
2022-10-01T23:48:06.003Z,12.17
2022-10-01T23:50:40.090Z,12.19
2022-10-01T23:53:14.932Z,12.09
2022-10-01T23:56:08.372Z,12.11
2022-10-01T23:58:43.849Z,12.08
